Time;durP1;ratioP1;P1;durP2;ratioP2;P2;SDS_P1;SDS_P2;PMS_P1;PMS_P2;Temp;Humidity;BMP_temperature;BMP_pressure;BME280_temperature;BME280_humidity;BME280_pressure;Samples;Min_cycle;Max_cycle;Signal;HPM_P1;HPM_P2
2022/03/17 00:01:42;;;;;;;10.30;6.70;;;;;;;10.51;52.41;102177.78;4965785;28;96530;-81
2022/03/17 00:04:08;;;;;;;10.20;6.93;;;;;;;10.52;52.55;102193.84;4966775;28;97025;-82
2022/03/17 00:06:34;;;;;;;7.70;5.63;;;;;;;10.47;52.80;102186.19;4966733;28;98935;-81
2022/03/17 00:09:00;;;;;;;11.93;7.33;;;;;;;10.54;52.61;102185.91;4967864;28;96874;-82
2022/03/17 00:11:26;;;;;;;10.90;7.60;;;;;;;10.57;52.70;102214.50;4966748;28;96738;-82
2022/03/17 00:13:51;;;;;;;10.77;6.23;;;;;;;10.55;52.50;102211.41;4962672;28;97166;-81
2022/03/17 00:16:17;;;;;;;11.17;6.80;;;;;;;10.63;52.52;102190.66;4965752;28;98078;-81
2022/03/17 00:18:42;;;;;;;9.00;7.10;;;;;;;10.60;52.53;102188.81;4967967;28;98171;-83
2022/03/17 00:21:07;;;;;;;10.83;7.87;;;;;;;10.60;52.67;102194.31;4963341;28;96953;-81
2022/03/17 00:23:33;;;;;;;11.53;6.97;;;;;;;10.63;52.69;102189.91;4967037;28;97267;-81
2022/03/17 00:25:58;;;;;;;14.27;7.47;;;;;;;10.59;52.74;102197.53;4961934;28;97571;-81
2022/03/17 00:28:23;;;;;;;10.40;7.87;;;;;;;10.59;52.82;102192.03;4965470;28;97313;-81
2022/03/17 00:30:49;;;;;;;10.57;6.90;;;;;;;10.57;52.64;102187.00;4968053;28;96557;-82
2022/03/17 00:33:14;;;;;;;10.47;7.27;;;;;;;10.59;52.72;102192.03;4968471;28;97141;-82
2022/03/17 00:35:42;;;;;;;11.70;7.73;;;;;;;10.59;52.81;102175.50;4964082;28;97507;-82
2022/03/17 00:38:10;;;;;;;10.87;7.40;;;;;;;10.59;52.62;102178.28;4962835;28;100416;-82
2022/03/17 00:40:38;;;;;;;11.27;8.27;;;;;;;10.59;52.84;102178.28;4967411;28;97392;-82
2022/03/17 00:43:05;;;;;;;9.80;7.67;;;;;;;10.61;52.82;102159.31;4965096;28;96974;-83
2022/03/17 00:45:31;;;;;;;12.83;8.77;;;;;;;10.63;52.68;102154.13;4963690;28;97055;-82
2022/03/17 00:47:57;;;;;;;12.37;8.77;;;;;;;10.61;52.68;102154.59;4962499;28;99090;-81
2022/03/17 00:50:23;;;;;;;10.87;7.73;;;;;;;10.62;52.46;102174.59;4967264;28;97335;-82
2022/03/17 00:52:48;;;;;;;17.33;9.20;;;;;;;10.63;52.72;102167.88;4966249;28;96826;-82
2022/03/17 00:55:14;;;;;;;11.87;9.17;;;;;;;10.69;52.59;102169.56;4965773;28;98351;-83
2022/03/17 00:57:41;;;;;;;12.07;8.73;;;;;;;10.69;52.59;102155.03;4970772;28;96958;-81
2022/03/17 01:00:08;;;;;;;11.80;8.60;;;;;;;10.72;52.49;102154.13;4969765;28;96934;-81
2022/03/17 01:02:34;;;;;;;12.23;8.93;;;;;;;10.72;52.64;102178.91;4967994;28;96914;-82
2022/03/17 01:05:00;;;;;;;12.80;10.23;;;;;;;10.72;52.50;102176.94;4965298;28;98979;-82
2022/03/17 01:07:25;;;;;;;12.30;9.70;;;;;;;10.77;52.59;102173.56;4965133;28;97584;-82
2022/03/17 01:09:50;;;;;;;15.23;9.60;;;;;;;10.78;52.64;102177.84;4965886;28;96885;-81
2022/03/17 01:12:16;;;;;;;14.63;10.30;;;;;;;10.78;52.70;102188.09;4966233;28;96776;-82
2022/03/17 01:14:41;;;;;;;11.40;8.80;;;;;;;10.82;52.53;102197.75;4969619;28;99265;-81
2022/03/17 01:17:07;;;;;;;13.23;8.67;;;;;;;10.86;52.46;102201.09;4969514;28;99689;-82
2022/03/17 01:19:33;;;;;;;14.30;9.50;;;;;;;10.86;52.42;102212.13;4966961;28;96899;-81
2022/03/17 01:21:58;;;;;;;16.90;11.07;;;;;;;10.85;52.35;102191.34;4969630;28;96945;-81
2022/03/17 01:24:24;;;;;;;12.77;9.93;;;;;;;10.84;52.31;102195.28;4969637;28;97686;-82
2022/03/17 01:26:49;;;;;;;13.63;10.07;;;;;;;10.83;52.40;102187.50;4967344;28;96947;-82
2022/03/17 01:29:15;;;;;;;14.60;10.17;;;;;;;10.83;52.48;102187.50;4966055;28;96678;-82
2022/03/17 01:31:41;;;;;;;12.90;9.30;;;;;;;10.82;52.67;102188.72;4969403;28;97013;-81
2022/03/17 01:34:06;;;;;;;12.93;9.80;;;;;;;10.78;52.34;102204.59;4970251;28;97965;-81
2022/03/17 01:36:31;;;;;;;17.00;11.17;;;;;;;10.78;52.50;102186.13;4968635;28;98540;-82
2022/03/17 01:38:57;;;;;;;18.77;11.33;;;;;;;10.76;52.56;102199.56;4970951;28;97299;-83
2022/03/17 01:41:23;;;;;;;13.90;10.43;;;;;;;10.78;52.48;102182.59;4969028;28;96837;-81
2022/03/17 01:43:48;;;;;;;14.57;11.30;;;;;;;10.74;52.46;102162.69;4965439;28;98471;-81
2022/03/17 01:46:15;;;;;;;15.07;9.80;;;;;;;10.75;52.41;102173.25;4968580;28;96675;-81
2022/03/17 01:48:42;;;;;;;15.80;11.17;;;;;;;10.72;52.63;102165.16;4969700;28;96841;-82
2022/03/17 01:51:08;;;;;;;16.23;11.20;;;;;;;10.71;52.52;102183.66;4976408;28;97412;-82
2022/03/17 01:53:33;;;;;;;15.67;10.97;;;;;;;10.71;52.61;102180.13;4969734;28;97631;-82
2022/03/17 01:56:00;;;;;;;17.57;12.10;;;;;;;10.71;52.55;102182.88;4964198;28;96965;-81
2022/03/17 01:58:26;;;;;;;19.50;10.50;;;;;;;10.71;52.74;102167.13;4967389;28;96766;-82
2022/03/17 02:00:52;;;;;;;13.23;10.43;;;;;;;10.70;52.71;102168.38;4968610;28;96956;-82
2022/03/17 02:03:19;;;;;;;18.40;12.13;;;;;;;10.71;52.59;102147.88;4966340;28;96955;-82
2022/03/17 02:05:45;;;;;;;15.80;11.20;;;;;;;10.69;52.83;102166.81;4964065;28;99040;-82
2022/03/17 02:08:13;;;;;;;17.77;11.93;;;;;;;10.68;52.86;102170.78;4962728;28;96893;-82
2022/03/17 02:13:23;;;;;;;15.87;10.80;;;;;;;10.68;52.82;102151.50;4966643;28;100436;-81
2022/03/17 02:15:55;;;;;;;19.03;12.57;;;;;;;10.72;52.84;102148.63;4969498;28;97320;-81
2022/03/17 02:18:22;;;;;;;17.33;11.13;;;;;;;10.70;52.92;102165.63;4963156;28;97107;-81
2022/03/17 02:20:48;;;;;;;16.50;11.80;;;;;;;10.75;52.88;102139.44;4969920;28;97783;-81
2022/03/17 02:26:01;;;;;;;16.10;10.73;;;;;;;10.75;52.74;102137.47;4960195;28;100102;-82
2022/03/17 02:28:28;;;;;;;15.07;11.30;;;;;;;10.77;52.87;102132.25;4962180;28;96690;-81
2022/03/17 02:30:54;;;;;;;16.00;10.97;;;;;;;10.75;52.81;102145.72;4967670;28;97243;-82
2022/03/17 02:33:20;;;;;;;19.30;12.23;;;;;;;10.72;52.81;102135.63;4965261;28;100044;-81
2022/03/17 02:35:49;;;;;;;20.70;11.73;;;;;;;10.70;53.01;102121.56;4969867;28;96954;-82
2022/03/17 02:38:15;;;;;;;16.70;12.30;;;;;;;10.68;53.00;102134.25;4962629;28;96671;-81
2022/03/17 02:40:43;;;;;;;16.13;11.30;;;;;;;10.70;52.98;102127.06;4986534;28;96865;-81
2022/03/17 02:43:09;;;;;;;15.67;11.40;;;;;;;10.72;53.12;102124.63;4968210;28;99636;-81
2022/03/17 02:45:35;;;;;;;16.47;11.53;;;;;;;10.72;53.15;102123.84;4980249;28;96721;-81
2022/03/17 02:48:02;;;;;;;17.07;11.23;;;;;;;10.71;53.01;102122.31;4980199;28;96625;-81
2022/03/17 02:50:28;;;;;;;18.83;12.33;;;;;;;10.71;53.04;102108.56;4970038;28;96534;-81
2022/03/17 02:52:53;;;;;;;18.97;12.70;;;;;;;10.71;53.14;102108.56;4971283;28;97113;-81
2022/03/17 02:55:19;;;;;;;18.53;12.07;;;;;;;10.73;53.20;102108.84;4963561;28;98865;-82
2022/03/17 02:57:45;;;;;;;19.70;12.20;;;;;;;10.75;53.14;102109.16;4966656;28;96957;-82
2022/03/17 03:00:12;;;;;;;19.73;12.77;;;;;;;10.75;53.17;102106.41;4964008;28;97297;-82
2022/03/17 03:02:39;;;;;;;17.00;11.90;;;;;;;10.73;53.26;102093.13;4970808;28;98336;-83
2022/03/17 03:05:08;;;;;;;16.30;11.17;;;;;;;10.77;53.50;102099.22;4971786;28;102822;-83
2022/03/17 03:07:34;;;;;;;20.33;12.50;;;;;;;10.76;53.19;102102.44;4968098;28;97084;-83
2022/03/17 03:10:01;;;;;;;21.50;13.17;;;;;;;10.76;53.52;102103.22;4971850;28;97457;-82
2022/03/17 03:12:26;;;;;;;18.27;12.73;;;;;;;10.71;53.50;102105.78;4969843;28;96780;-83
2022/03/17 03:14:52;;;;;;;19.87;13.77;;;;;;;10.73;53.35;102090.34;4965217;28;98486;-84
2022/03/17 03:17:18;;;;;;;21.20;12.50;;;;;;;10.74;53.39;102093.88;4969156;28;97123;-83
2022/03/17 03:19:43;;;;;;;18.20;12.87;;;;;;;10.72;53.49;102083.34;4967144;28;96939;-82
2022/03/17 03:22:09;;;;;;;20.90;13.80;;;;;;;10.72;53.59;102085.31;4967683;28;99996;-83
2022/03/17 03:24:36;;;;;;;20.40;13.33;;;;;;;10.72;53.52;102074.31;4969360;28;97705;-83
2022/03/17 03:27:02;;;;;;;19.30;12.70;;;;;;;10.73;53.59;102086.84;4967812;28;97129;-84
2022/03/17 03:29:28;;;;;;;21.93;13.17;;;;;;;10.71;53.79;102087.31;4973318;28;97210;-84
2022/03/17 03:31:56;;;;;;;16.67;12.00;;;;;;;10.72;53.57;102086.09;4969086;28;98593;-83
2022/03/17 03:34:22;;;;;;;21.70;13.47;;;;;;;10.73;53.48;102086.84;4966360;28;98488;-83
2022/03/17 03:39:33;;;;;;;22.20;13.60;;;;;;;10.71;53.76;102081.78;4967301;28;96992;-82
2022/03/17 03:42:02;;;;;;;19.60;13.93;;;;;;;10.72;53.76;102082.56;4963216;28;99062;-84
2022/03/17 03:44:28;;;;;;;18.93;12.47;;;;;;;10.75;53.74;102078.88;4965155;28;97861;-83
2022/03/17 03:46:53;;;;;;;17.60;13.03;;;;;;;10.74;53.53;102085.63;4967526;28;96997;-84
2022/03/17 03:49:19;;;;;;;18.10;12.37;;;;;;;10.75;53.74;102079.66;4955607;28;96770;-83
2022/03/17 03:51:44;;;;;;;20.30;13.30;;;;;;;10.77;53.76;102087.47;4960253;28;99643;-83
2022/03/17 03:54:13;;;;;;;20.00;13.20;;;;;;;10.76;53.64;102085.94;4968879;28;97045;-83
2022/03/17 03:56:50;;;;;;;19.83;13.43;;;;;;;10.78;53.97;102070.50;4957875;28;97065;-83
2022/03/17 03:59:21;;;;;;;20.97;13.53;;;;;;;10.77;53.88;102065.44;4958158;28;97024;-82
2022/03/17 04:01:48;;;;;;;21.60;14.40;;;;;;;10.75;53.90;102068.63;4965972;28;99532;-83
2022/03/17 04:04:20;;;;;;;20.30;13.77;;;;;;;10.72;53.85;102071.56;4965636;28;97089;-82
2022/03/17 04:06:51;;;;;;;17.57;12.83;;;;;;;10.74;54.04;102060.84;4957569;28;97021;-84
2022/03/17 04:09:19;;;;;;;19.93;14.23;;;;;;;10.72;54.04;102055.03;4976641;28;96807;-83
2022/03/17 04:11:46;;;;;;;19.80;13.40;;;;;;;10.70;53.99;102050.00;4967590;28;97002;-83
2022/03/17 04:14:13;;;;;;;19.27;13.97;;;;;;;10.73;53.93;102068.34;4967260;28;96955;-82
2022/03/17 04:16:38;;;;;;;20.87;13.47;;;;;;;10.72;53.97;102042.06;4966130;28;96783;-82
2022/03/17 04:19:04;;;;;;;25.03;14.10;;;;;;;10.72;53.98;102046.78;4966723;28;97162;-83
2022/03/17 04:21:30;;;;;;;22.57;14.60;;;;;;;10.73;53.97;102048.28;4965422;28;97102;-83
2022/03/17 04:23:56;;;;;;;23.63;16.00;;;;;;;10.73;53.96;102064.81;4962525;28;98255;-83
2022/03/17 04:26:21;;;;;;;19.73;13.10;;;;;;;10.68;54.04;102059.94;4977360;28;97906;-83
2022/03/17 04:28:47;;;;;;;24.30;14.63;;;;;;;10.68;54.06;102049.66;4963292;28;96885;-84
2022/03/17 04:31:13;;;;;;;22.87;14.53;;;;;;;10.69;53.99;102048.47;4958450;28;98851;-84
2022/03/17 04:33:38;;;;;;;20.47;14.87;;;;;;;10.73;54.06;102056.56;4964825;28;98173;-83
2022/03/17 04:36:05;;;;;;;21.87;14.70;;;;;;;10.75;54.04;102059.59;4967030;28;97138;-83
2022/03/17 04:38:31;;;;;;;21.33;14.97;;;;;;;10.73;54.07;102051.81;4967324;28;96930;-83
2022/03/17 04:40:57;;;;;;;22.33;14.80;;;;;;;10.72;54.10;102052.28;4966312;28;99759;-82
2022/03/17 04:43:22;;;;;;;22.63;14.83;;;;;;;10.68;54.05;102068.19;4966525;28;99652;-84
2022/03/17 04:45:48;;;;;;;21.97;14.53;;;;;;;10.73;54.11;102065.59;4964268;28;97434;-83
2022/03/17 04:48:14;;;;;;;20.67;13.83;;;;;;;10.73;54.14;102075.81;4965903;28;97370;-83
2022/03/17 04:50:40;;;;;;;22.20;14.17;;;;;;;10.75;53.98;102056.84;4964624;28;99657;-84
2022/03/17 04:55:50;;;;;;;20.67;14.20;;;;;;;10.75;54.09;102073.38;4963488;28;97106;-84
2022/03/17 04:58:15;;;;;;;21.40;13.70;;;;;;;10.77;54.09;102079.22;4965009;28;97266;-83
2022/03/17 05:00:44;;;;;;;18.93;13.57;;;;;;;10.75;54.10;102076.91;4942903;28;97944;-84
2022/03/17 05:03:10;;;;;;;19.40;13.90;;;;;;;10.77;53.94;102062.69;4953523;28;97205;-84
2022/03/17 05:05:37;;;;;;;22.13;13.70;;;;;;;10.75;54.15;102070.63;4964038;28;97241;-83
2022/03/17 05:08:03;;;;;;;21.50;14.90;;;;;;;10.75;54.04;102056.84;4961804;28;97162;-83
2022/03/17 05:10:29;;;;;;;24.00;15.73;;;;;;;10.76;54.13;102080.44;4963553;28;97595;-84
2022/03/17 05:12:55;;;;;;;24.43;15.80;;;;;;;10.78;54.12;102069.72;4970341;28;96932;-84
2022/03/17 05:15:28;;;;;;;21.30;14.50;;;;;;;10.77;54.35;102066.19;4951067;28;96999;-83
2022/03/17 05:17:55;;;;;;;22.50;13.93;;;;;;;10.77;54.23;102070.97;4927776;28;97442;-84
2022/03/17 05:20:22;;;;;;;19.50;13.50;;;;;;;10.77;54.10;102070.97;4954931;28;98920;-83
2022/03/17 05:22:48;;;;;;;23.47;14.87;;;;;;;10.82;54.13;102067.56;4959904;28;98431;-84
2022/03/17 05:25:14;;;;;;;24.27;15.70;;;;;;;10.82;54.20;102079.34;4964845;28;97130;-84
2022/03/17 05:27:41;;;;;;;25.40;14.77;;;;;;;10.83;54.08;102089.16;4965884;28;97174;-84
2022/03/17 05:30:09;;;;;;;20.40;13.03;;;;;;;10.82;54.19;102070.31;4965206;28;98537;-84
2022/03/17 05:32:35;;;;;;;21.30;14.83;;;;;;;10.79;54.14;102076.75;4965830;28;99518;-83
2022/03/17 05:35:00;;;;;;;21.20;14.67;;;;;;;10.81;54.20;102077.81;4963910;28;96888;-83
2022/03/17 05:37:25;;;;;;;23.53;15.60;;;;;;;10.81;54.29;102071.56;4965822;28;96928;-84
2022/03/17 05:39:51;;;;;;;21.73;15.07;;;;;;;10.82;54.26;102079.34;4960181;28;97977;-84
2022/03/17 05:42:17;;;;;;;25.43;15.50;;;;;;;10.84;54.25;102078.88;4959884;28;98430;-83
2022/03/17 05:44:42;;;;;;;21.73;14.97;;;;;;;10.82;54.10;102075.81;4982323;28;96871;-84
2022/03/17 05:47:08;;;;;;;21.40;14.47;;;;;;;10.82;54.23;102078.59;4969131;28;96934;-81
2022/03/17 05:49:33;;;;;;;21.87;15.13;;;;;;;10.84;54.29;102082.41;4965220;28;97718;-82
2022/03/17 05:51:59;;;;;;;22.00;15.23;;;;;;;10.86;54.36;102079.97;4969852;28;97794;-84
2022/03/17 05:54:24;;;;;;;21.73;15.10;;;;;;;10.86;54.21;102082.72;4967021;28;96953;-82
2022/03/17 05:56:50;;;;;;;24.17;15.83;;;;;;;10.86;54.26;102079.19;4967383;28;97209;-83
2022/03/17 05:59:15;;;;;;;23.30;15.47;;;;;;;10.88;54.30;102087.75;4967801;28;98284;-82
2022/03/17 06:01:40;;;;;;;22.30;14.57;;;;;;;10.89;54.11;102090.06;4965832;28;99061;-83
2022/03/17 06:04:06;;;;;;;22.10;15.03;;;;;;;10.93;54.20;102103.66;4965217;28;96900;-82
2022/03/17 06:06:31;;;;;;;23.90;15.30;;;;;;;10.95;54.08;102109.47;4964672;28;97158;-82
2022/03/17 06:08:57;;;;;;;24.00;15.23;;;;;;;10.94;54.12;102099.72;4965496;28;99195;-83
2022/03/17 06:11:22;;;;;;;23.13;15.40;;;;;;;10.96;54.10;102094.50;4966839;28;96924;-84
2022/03/17 06:13:48;;;;;;;23.37;15.50;;;;;;;11.00;54.17;102104.13;4970269;28;97313;-83
2022/03/17 06:16:13;;;;;;;22.47;15.00;;;;;;;11.01;53.96;102124.16;4971551;28;97294;-83
2022/03/17 06:18:40;;;;;;;21.37;14.47;;;;;;;11.03;54.09;102105.97;4966535;28;99874;-83
2022/03/17 06:21:05;;;;;;;20.97;14.57;;;;;;;11.04;54.02;102113.00;4968172;28;96719;-83
2022/03/17 06:23:31;;;;;;;22.90;15.80;;;;;;;11.03;54.15;102105.97;4967024;28;96968;-83
2022/03/17 06:25:57;;;;;;;23.83;15.77;;;;;;;11.02;54.27;102109.19;4968519;28;97362;-83
2022/03/17 06:28:22;;;;;;;20.50;14.23;;;;;;;11.03;54.17;102100.44;4968098;28;97361;-83
2022/03/17 06:30:48;;;;;;;23.40;16.00;;;;;;;11.05;54.08;102124.78;4963742;28;98575;-81
2022/03/17 06:33:14;;;;;;;20.73;14.63;;;;;;;11.06;54.04;102104.28;4955586;28;97037;-82
2022/03/17 06:35:40;;;;;;;21.17;14.63;;;;;;;11.08;54.12;102104.59;4966003;28;96945;-81
2022/03/17 06:38:07;;;;;;;22.97;15.57;;;;;;;11.09;54.11;102103.38;4966785;28;100396;-82
2022/03/17 06:40:33;;;;;;;23.40;15.17;;;;;;;11.08;54.26;102121.09;4966541;28;96691;-81
2022/03/17 06:42:59;;;;;;;21.20;15.33;;;;;;;11.09;54.09;102111.63;4965333;28;96728;-82
2022/03/17 06:45:25;;;;;;;21.87;15.37;;;;;;;11.13;54.25;102115.75;4964109;28;96933;-82
2022/03/17 06:47:51;;;;;;;23.17;15.97;;;;;;;11.15;54.13;102107.03;4967852;28;98088;-81
2022/03/17 06:50:20;;;;;;;25.57;15.73;;;;;;;11.17;54.19;102110.84;4968481;28;101457;-82
2022/03/17 06:52:46;;;;;;;22.30;14.77;;;;;;;11.19;54.04;102140.69;4968465;28;97109;-81
2022/03/17 06:55:11;;;;;;;20.07;15.40;;;;;;;11.22;54.13;102118.50;4964902;28;96754;-81
2022/03/17 06:57:37;;;;;;;23.47;15.77;;;;;;;11.26;54.01;102129.38;4968553;28;97597;-82
2022/03/17 07:00:08;;;;;;;21.63;15.33;;;;;;;11.36;53.88;102121.88;4968641;28;97816;-83
2022/03/17 07:02:33;;;;;;;22.47;15.00;;;;;;;11.39;53.90;102118.16;4966024;28;96616;-81
2022/03/17 07:04:59;;;;;;;22.67;14.93;;;;;;;11.42;53.90;102145.59;4963587;28;97013;-81
2022/03/17 07:07:24;;;;;;;26.60;14.73;;;;;;;11.49;53.82;102116.94;4963807;28;97160;-81
2022/03/17 07:09:50;;;;;;;22.57;15.10;;;;;;;11.53;53.78;102123.06;4965261;28;97927;-82
2022/03/17 07:12:15;;;;;;;21.27;14.47;;;;;;;11.60;53.73;102136.53;4955882;28;96696;-82
2022/03/17 07:14:41;;;;;;;21.33;15.40;;;;;;;11.65;53.56;102133.88;4959563;28;97072;-81
2022/03/17 07:17:06;;;;;;;19.80;14.23;;;;;;;11.69;53.57;102133.75;4961831;28;96829;-82
2022/03/17 07:19:32;;;;;;;21.40;15.10;;;;;;;11.70;53.53;102140.81;4961444;28;97359;-81
2022/03/17 07:21:58;;;;;;;21.63;15.37;;;;;;;11.77;53.57;102154.25;4965793;28;96928;-82
2022/03/17 07:24:24;;;;;;;21.40;14.97;;;;;;;11.76;53.55;102131.44;4961370;28;96929;-82
2022/03/17 07:26:49;;;;;;;19.90;14.47;;;;;;;11.84;53.34;102134.63;4962034;28;100399;-81
2022/03/17 07:29:14;;;;;;;18.70;14.00;;;;;;;11.89;53.49;102143.03;4958849;28;97226;-81
2022/03/17 07:31:40;;;;;;;19.60;14.30;;;;;;;11.93;53.39;102127.09;4960935;28;96615;-81
2022/03/17 07:34:05;;;;;;;21.97;15.27;;;;;;;11.98;53.32;102151.28;4960368;28;96948;-82
2022/03/17 07:36:31;;;;;;;21.20;14.60;;;;;;;12.07;53.46;102142.22;4961396;28;99955;-81
2022/03/17 07:38:58;;;;;;;23.43;15.73;;;;;;;12.14;53.09;102155.69;4962584;28;96613;-81
2022/03/17 07:41:24;;;;;;;21.30;14.97;;;;;;;12.17;53.07;102151.19;4963580;28;96875;-81
2022/03/17 07:43:50;;;;;;;19.50;15.10;;;;;;;12.20;53.15;102150.28;4966415;28;96851;-81
2022/03/17 07:46:16;;;;;;;21.43;14.23;;;;;;;12.23;53.01;102160.38;4960737;28;99860;-82
2022/03/17 07:48:43;;;;;;;21.30;15.40;;;;;;;12.25;53.07;102168.97;4965272;28;98767;-81
2022/03/17 07:51:09;;;;;;;23.27;14.93;;;;;;;12.25;52.86;102161.44;4966056;28;96933;-81
2022/03/17 07:53:34;;;;;;;21.50;14.13;;;;;;;12.25;52.81;102164.22;4964177;28;97045;-81
2022/03/17 07:56:01;;;;;;;20.70;14.67;;;;;;;12.25;52.81;102164.22;4961736;28;99540;-81
2022/03/17 07:58:27;;;;;;;19.00;15.40;;;;;;;12.29;52.79;102169.56;4959879;28;99078;-82
2022/03/17 08:00:54;;;;;;;23.20;15.90;;;;;;;12.35;52.79;102173.19;4964147;28;96870;-82
2022/03/17 08:03:20;;;;;;;21.90;15.10;;;;;;;12.36;52.86;102181.00;4961554;28;98818;-81
2022/03/17 08:05:46;;;;;;;21.43;14.50;;;;;;;12.39;52.80;102176.53;4964407;28;99428;-82
2022/03/17 08:08:13;;;;;;;22.50;14.87;;;;;;;12.37;52.64;102177.03;4959497;28;97039;-82
2022/03/17 08:10:39;;;;;;;20.90;14.83;;;;;;;12.36;52.90;102177.50;4964864;28;97080;-82
2022/03/17 08:13:06;;;;;;;20.63;14.60;;;;;;;12.34;52.74;102186.22;4959592;28;96905;-81
2022/03/17 08:15:31;;;;;;;22.70;15.33;;;;;;;12.37;52.85;102184.53;4962339;28;102429;-81
2022/03/17 08:17:57;;;;;;;20.20;14.57;;;;;;;12.37;52.78;102199.09;4959746;28;99390;-82
2022/03/17 08:20:23;;;;;;;18.80;14.47;;;;;;;12.36;52.81;102185.78;4957872;28;96934;-81
2022/03/17 08:22:50;;;;;;;20.50;14.87;;;;;;;12.34;52.76;102199.28;4956042;28;97000;-81
2022/03/17 08:25:16;;;;;;;23.43;16.27;;;;;;;12.36;52.79;102194.06;4960060;28;100971;-81
2022/03/17 08:27:42;;;;;;;21.33;15.80;;;;;;;12.37;52.80;102196.34;4957562;28;102773;-81
2022/03/17 08:30:08;;;;;;;24.20;15.03;;;;;;;12.37;52.87;102207.38;4965330;28;96952;-81
2022/03/17 08:32:34;;;;;;;21.43;14.60;;;;;;;12.35;52.88;102207.09;4961815;28;96776;-82
2022/03/17 08:34:59;;;;;;;19.80;14.07;;;;;;;12.38;53.01;102217.22;4963129;28;98663;-82
2022/03/17 08:37:25;;;;;;;18.67;14.30;;;;;;;12.39;53.08;102224.22;4963867;28;97873;-81
2022/03/17 08:39:51;;;;;;;20.10;14.77;;;;;;;12.40;53.23;102205.69;4963168;28;97133;-82
2022/03/17 08:42:17;;;;;;;21.37;16.07;;;;;;;12.39;53.12;102210.44;4965093;28;96609;-82
2022/03/17 08:44:43;;;;;;;20.83;15.37;;;;;;;12.37;53.18;102217.66;4957267;28;97786;-82
2022/03/17 08:49:52;;;;;;;19.87;15.07;;;;;;;12.38;53.39;102230.22;4963074;28;97422;-82
2022/03/17 08:52:19;;;;;;;18.60;14.27;;;;;;;12.41;53.63;102241.09;4976737;28;96925;-83
2022/03/17 08:54:45;;;;;;;21.20;15.40;;;;;;;12.38;53.80;102236.53;4977588;28;97860;-82
2022/03/17 08:57:11;;;;;;;22.63;15.20;;;;;;;12.34;53.84;102226.88;4978855;28;98156;-82
2022/03/17 08:59:37;;;;;;;20.60;15.43;;;;;;;12.35;53.89;102234.69;4980176;28;96844;-82
2022/03/17 09:02:08;;;;;;;22.93;16.30;;;;;;;12.32;53.94;102248.66;4980291;28;96029;-82
2022/03/17 09:04:34;;;;;;;21.83;15.07;;;;;;;12.34;54.03;102248.97;4978628;28;96771;-82
2022/03/17 09:07:01;;;;;;;20.20;15.20;;;;;;;12.36;54.04;102241.72;4978680;28;96513;-82
2022/03/17 09:09:32;;;;;;;21.40;15.10;;;;;;;12.39;54.16;102246.31;4962525;28;96763;-82
2022/03/17 09:11:58;;;;;;;19.47;14.23;;;;;;;12.42;54.28;102247.38;4965537;28;97088;-83
2022/03/17 09:14:24;;;;;;;27.67;15.40;;;;;;;12.42;54.29;102253.69;4966066;28;96988;-82
2022/03/17 09:16:49;;;;;;;19.93;14.73;;;;;;;12.43;54.50;102262.69;4967197;28;97737;-82
2022/03/17 09:19:15;;;;;;;21.07;15.87;;;;;;;12.41;54.90;102276.22;4965825;28;96754;-82
2022/03/17 09:21:41;;;;;;;17.97;14.30;;;;;;;12.38;54.80;102283.44;4960866;28;96658;-83
2022/03/17 09:24:07;;;;;;;19.30;14.00;;;;;;;12.37;55.23;102272.84;4964584;28;96668;-82
2022/03/17 09:26:32;;;;;;;20.30;14.50;;;;;;;12.36;55.44;102274.09;4961850;28;100207;-82
2022/03/17 09:28:58;;;;;;;19.93;15.37;;;;;;;12.35;55.23;102270.56;4963209;28;97040;-82
2022/03/17 09:31:24;;;;;;;18.77;14.30;;;;;;;12.33;55.52;102288.81;4966332;28;97479;-83
2022/03/17 09:33:50;;;;;;;22.17;15.90;;;;;;;12.29;55.70;102290.97;4966661;28;98666;-83
2022/03/17 09:36:16;;;;;;;19.80;15.20;;;;;;;12.25;55.84;102296.66;4964556;28;97310;-82
2022/03/17 09:38:42;;;;;;;21.10;15.30;;;;;;;12.24;56.02;102289.59;4967844;28;96862;-83
2022/03/17 09:41:24;;;;;;;19.20;15.27;;;;;;;12.19;56.22;102308.78;4963654;28;97063;-82
2022/03/17 09:43:53;;;;;;;21.37;14.97;;;;;;;12.18;56.36;102308.03;4959730;28;101042;-82
2022/03/17 09:46:21;;;;;;;20.07;14.60;;;;;;;12.16;56.16;102312.47;4965976;28;99735;-82
2022/03/17 09:48:51;;;;;;;19.87;15.33;;;;;;;12.14;56.58;102310.19;4978124;28;97847;-82
2022/03/17 09:51:20;;;;;;;20.17;15.07;;;;;;;12.16;56.50;102315.22;4967269;28;96931;-82
2022/03/17 09:53:45;;;;;;;20.50;15.10;;;;;;;12.14;56.70;102325.97;4966077;28;98482;-81
2022/03/17 09:56:11;;;;;;;21.13;15.13;;;;;;;12.12;56.72;102328.41;4961668;28;97161;-81
2022/03/17 09:58:36;;;;;;;20.00;15.90;;;;;;;12.11;56.87;102341.44;4966043;28;98356;-81
2022/03/17 10:01:02;;;;;;;24.17;15.87;;;;;;;12.10;56.90;102336.41;4965666;28;96986;-81
2022/03/17 10:03:29;;;;;;;23.07;16.00;;;;;;;12.10;57.18;102339.91;4956332;28;96967;-81
2022/03/17 10:05:57;;;;;;;22.93;15.30;;;;;;;12.09;57.18;102343.91;4966893;28;97096;-81
2022/03/17 10:08:23;;;;;;;22.77;15.60;;;;;;;12.08;57.28;102342.34;4968259;28;96866;-81
2022/03/17 10:10:52;;;;;;;20.50;15.43;;;;;;;12.09;57.23;102367.97;4974686;28;97057;-82
2022/03/17 10:13:25;;;;;;;20.57;15.80;;;;;;;12.13;58.04;102357.53;4963205;28;100038;-81
2022/03/17 10:16:06;;;;;;;20.50;16.23;;;;;;;12.14;58.65;102359.06;4963635;28;102409;-81
2022/03/17 10:18:37;;;;;;;20.73;15.27;;;;;;;12.14;57.58;102381.91;4961816;28;97062;-81
2022/03/17 10:21:11;;;;;;;22.47;16.53;;;;;;;12.16;58.20;102378.69;4958306;28;97460;-81
2022/03/17 10:23:56;;;;;;;21.33;15.37;;;;;;;12.12;58.80;102370.56;4961220;28;98249;-82
2022/03/17 10:26:33;;;;;;;21.00;15.63;;;;;;;12.12;58.87;102389.91;4958457;28;98572;-82
2022/03/17 10:29:17;;;;;;;23.37;16.00;;;;;;;12.11;58.84;102395.84;4978631;28;98501;-83
2022/03/17 10:32:05;;;;;;;22.63;16.30;;;;;;;12.11;59.30;102395.84;4963676;28;98825;-81
2022/03/17 10:34:47;;;;;;;21.40;14.90;;;;;;;12.12;58.45;102400.16;4966694;28;97623;-82
2022/03/17 10:37:15;;;;;;;20.70;15.00;;;;;;;12.11;58.21;102412.41;4961623;28;103559;-85
2022/03/17 10:39:46;;;;;;;25.60;15.27;;;;;;;12.10;58.28;102430.19;4964614;28;97001;-83
2022/03/17 10:42:12;;;;;;;21.87;15.90;;;;;;;12.09;58.38;102423.13;4964876;28;96623;-82
2022/03/17 10:44:44;;;;;;;19.33;14.57;;;;;;;12.06;58.66;102429.59;4965031;28;100062;-82
2022/03/17 10:47:10;;;;;;;21.33;14.17;;;;;;;12.04;58.72;102433.56;4965638;28;98148;-81
2022/03/17 10:49:36;;;;;;;18.00;13.50;;;;;;;12.02;58.74;102440.75;4978653;28;97751;-81
2022/03/17 10:52:02;;;;;;;18.27;12.70;;;;;;;12.00;58.79;102445.97;4986090;28;96399;-82
2022/03/17 10:54:28;;;;;;;15.00;11.20;;;;;;;11.94;58.95;102443.06;4958346;28;97107;-83
2022/03/17 10:57:03;;;;;;;13.37;10.73;;;;;;;12.03;59.57;102464.38;4965205;28;96784;-81
2022/03/17 10:59:43;;;;;;;14.17;10.60;;;;;;;12.04;59.95;102469.44;4978964;28;96736;-82
2022/03/17 11:02:16;;;;;;;10.27;8.57;;;;;;;12.09;58.90;102478.31;4957362;28;99148;-82
2022/03/17 11:04:46;;;;;;;10.07;8.80;;;;;;;12.09;59.26;102492.13;4972751;28;96913;-82
2022/03/17 11:07:17;;;;;;;11.67;9.57;;;;;;;12.12;59.08;102488.44;4962685;28;97339;-82
2022/03/17 11:09:45;;;;;;;11.47;8.80;;;;;;;12.15;59.04;102502.09;4959331;28;97386;-81
2022/03/17 11:12:13;;;;;;;10.60;8.20;;;;;;;12.20;59.02;102497.94;4960213;28;96858;-82
2022/03/17 11:14:47;;;;;;;8.93;7.60;;;;;;;12.20;59.97;102503.47;4963885;28;102148;-82
2022/03/17 11:17:16;;;;;;;10.90;7.33;;;;;;;12.20;59.13;102506.22;4966761;28;101137;-81
2022/03/17 11:19:43;;;;;;;11.33;6.33;;;;;;;12.23;59.08;102527.41;4965153;28;99461;-82
2022/03/17 11:22:14;;;;;;;8.87;6.00;;;;;;;12.26;59.57;102516.22;4962440;28;97178;-81